Honea Path, South Carolina
Current Conditions -  °F | °C
As of 8:56 PM on Monday 22 Dec 2014 (Local Time) from KAND Reporting Station
Heavy Rain Heavy Rain  
Wind Chill: 34°   Ceiling: 600
Heat Index: 41°   Visibility: 5mi
Dew Point: 39°   Wind: 12mph
Humidity: 93%   Direction: 80°E
Pressure: 29.99"   Gusts: NA
Location:  34.45°N, 82.39°W
Report Text: KAND 230156Z AUTO 08010KT 5SM +RA BR BKN006 OVC042 05/04 A2999 RMK AO2 SLP157 P0012 T00500039
Loading
Personal Weather Stations






























Interactive Weather Map New forecast layout! Learn more

10-Day Weather Forecast

Advertisements
Track Severe Weather on mobile